Time;durP1;ratioP1;P1;durP2;ratioP2;P2;SDS_P1;SDS_P2;PMS_P1;PMS_P2;Temp;Humidity;BMP_temperature;BMP_pressure;BME280_temperature;BME280_humidity;BME280_pressure;Samples;Min_cycle;Max_cycle;Signal;HPM_P1;HPM_P2
2022/01/05 00:01:30;;;;;;;1.08;1.08;;;;;;;;;;4944128;29;20050;-72
2022/01/05 00:03:55;;;;;;;1.13;1.08;;;;;;;;;;4943773;29;20035;-73
2022/01/05 00:06:21;;;;;;;0.88;0.88;;;;;;;;;;4928022;28;20401;-73
2022/01/05 00:08:46;;;;;;;0.98;0.77;;;;;;;;;;4943851;28;20054;-73
2022/01/05 00:11:12;;;;;;;0.82;0.82;;;;;;;;;;4939655;28;20038;-73
2022/01/05 00:13:37;;;;;;;1.05;0.90;;;;;;;;;;4942940;28;20126;-73
2022/01/05 00:16:04;;;;;;;0.95;0.90;;;;;;;;;;4957802;28;20967;-72
2022/01/05 00:18:29;;;;;;;0.90;0.90;;;;;;;;;;4956727;28;20888;-72
2022/01/05 00:20:55;;;;;;;1.35;1.15;;;;;;;;;;4935671;28;20540;-72
2022/01/05 00:23:21;;;;;;;1.48;1.38;;;;;;;;;;4924936;29;20043;-72
2022/01/05 00:25:46;;;;;;;1.58;1.25;;;;;;;;;;4944455;28;20039;-72
2022/01/05 00:28:12;;;;;;;1.00;1.00;;;;;;;;;;4943038;28;20079;-72
2022/01/05 00:30:37;;;;;;;1.40;1.30;;;;;;;;;;4935239;28;20027;-72
2022/01/05 00:33:03;;;;;;;1.50;1.40;;;;;;;;;;4943681;28;20050;-72
2022/01/05 00:35:28;;;;;;;2.20;2.00;;;;;;;;;;4942808;29;20046;-72
2022/01/05 00:37:53;;;;;;;2.05;1.90;;;;;;;;;;4944017;28;20118;-72
2022/01/05 00:40:19;;;;;;;1.85;1.75;;;;;;;;;;4943578;28;20917;-72
2022/01/05 00:42:45;;;;;;;2.13;2.00;;;;;;;;;;4944078;28;20042;-71
2022/01/05 00:45:10;;;;;;;4.18;2.38;;;;;;;;;;4943567;28;20535;-72
2022/01/05 00:47:36;;;;;;;2.15;1.67;;;;;;;;;;4943220;29;20591;-71
2022/01/05 00:50:01;;;;;;;1.80;1.70;;;;;;;;;;4938173;28;20031;-71
2022/01/05 00:52:27;;;;;;;1.83;1.50;;;;;;;;;;4940023;28;20051;-71
2022/01/05 00:54:52;;;;;;;1.50;1.40;;;;;;;;;;4958310;28;20035;-71
2022/01/05 00:57:18;;;;;;;1.42;1.33;;;;;;;;;;4943271;28;20503;-71
2022/01/05 00:59:43;;;;;;;1.40;1.30;;;;;;;;;;4927069;29;20373;-71
2022/01/05 01:02:09;;;;;;;0.90;0.90;;;;;;;;;;4942591;28;20435;-71
2022/01/05 01:04:34;;;;;;;0.68;0.68;;;;;;;;;;4941819;28;20035;-73
2022/01/05 01:07:00;;;;;;;1.50;1.40;;;;;;;;;;4936398;28;20481;-73
2022/01/05 01:09:25;;;;;;;1.55;1.45;;;;;;;;;;4933974;29;20051;-72
2022/01/05 01:11:51;;;;;;;0.70;0.70;;;;;;;;;;4934964;28;20036;-72
2022/01/05 01:14:16;;;;;;;1.00;1.00;;;;;;;;;;4930974;28;20043;-72
2022/01/05 01:16:42;;;;;;;1.00;0.95;;;;;;;;;;4938188;28;20063;-73
2022/01/05 01:19:07;;;;;;;0.80;0.80;;;;;;;;;;4937265;28;20040;-74
2022/01/05 01:21:33;;;;;;;0.80;0.80;;;;;;;;;;4932661;28;20044;-72
2022/01/05 01:23:58;;;;;;;0.75;0.75;;;;;;;;;;4947569;28;20067;-73
2022/01/05 01:26:26;;;;;;;0.77;0.77;;;;;;;;;;4933534;28;20400;-72
2022/01/05 01:28:52;;;;;;;0.80;0.80;;;;;;;;;;4933210;29;20032;-72
2022/01/05 01:31:18;;;;;;;0.80;0.80;;;;;;;;;;4934859;29;20035;-72
2022/01/05 01:33:44;;;;;;;0.75;0.75;;;;;;;;;;4934764;28;20027;-71
2022/01/05 01:36:10;;;;;;;0.50;0.50;;;;;;;;;;4935059;28;20035;-72
2022/01/05 01:38:35;;;;;;;0.50;0.50;;;;;;;;;;4935214;28;20062;-74
2022/01/05 01:41:01;;;;;;;0.50;0.50;;;;;;;;;;4932178;29;20090;-73
2022/01/05 01:43:26;;;;;;;0.60;0.60;;;;;;;;;;4933798;28;20039;-74
2022/01/05 01:45:51;;;;;;;0.85;0.85;;;;;;;;;;4936835;28;20089;-73
2022/01/05 01:48:17;;;;;;;1.25;0.65;;;;;;;;;;4935153;28;20099;-75
2022/01/05 01:50:43;;;;;;;0.57;0.57;;;;;;;;;;4938534;28;20445;-71
2022/01/05 01:53:08;;;;;;;0.55;0.55;;;;;;;;;;4926781;29;20108;-74
2022/01/05 01:55:36;;;;;;;0.50;0.50;;;;;;;;;;4925816;28;20031;-71
2022/01/05 01:58:04;;;;;;;0.60;0.60;;;;;;;;;;4941668;28;20038;-72
2022/01/05 02:00:29;;;;;;;0.65;0.65;;;;;;;;;;4925610;29;20035;-70
2022/01/05 02:02:55;;;;;;;0.93;0.93;;;;;;;;;;4935640;28;20043;-72
2022/01/05 02:05:21;;;;;;;1.10;1.00;;;;;;;;;;4942402;29;20043;-71
2022/01/05 02:07:47;;;;;;;0.52;0.52;;;;;;;;;;4940784;28;20035;-72
2022/01/05 02:10:12;;;;;;;0.52;0.52;;;;;;;;;;4934045;28;20040;-72
2022/01/05 02:12:38;;;;;;;0.77;0.50;;;;;;;;;;4956948;28;20503;-71
2022/01/05 02:15:04;;;;;;;0.45;0.45;;;;;;;;;;4926913;29;20079;-70
2022/01/05 02:17:50;;;;;;;0.40;0.40;;;;;;;;;;4937030;28;20122;-71
2022/01/05 02:20:20;;;;;;;0.25;0.25;;;;;;;;;;4940964;28;20042;-71
2022/01/05 02:22:46;;;;;;;0.40;0.40;;;;;;;;;;4927124;28;20031;-71
2022/01/05 02:25:12;;;;;;;0.40;0.40;;;;;;;;;;4934868;28;20143;-70
2022/01/05 02:27:40;;;;;;;0.40;0.40;;;;;;;;;;4941190;28;20070;-71
2022/01/05 02:30:07;;;;;;;0.43;0.43;;;;;;;;;;4955857;28;20023;-71
2022/01/05 02:32:32;;;;;;;0.40;0.40;;;;;;;;;;4942168;28;20579;-70
2022/01/05 02:34:58;;;;;;;0.20;0.20;;;;;;;;;;4940864;29;20059;-71
2022/01/05 02:37:23;;;;;;;0.30;0.30;;;;;;;;;;4941511;28;20046;-71
2022/01/05 02:39:48;;;;;;;0.40;0.40;;;;;;;;;;4940484;28;20114;-71
2022/01/05 02:42:28;;;;;;;0.52;0.52;;;;;;;;;;4942695;28;21028;-71
2022/01/05 02:44:55;;;;;;;0.30;0.30;;;;;;;;;;4939737;29;20031;-71
2022/01/05 02:47:21;;;;;;;0.45;0.45;;;;;;;;;;4944754;29;20476;-71
2022/01/05 02:49:46;;;;;;;0.50;0.50;;;;;;;;;;4944635;29;20043;-72
2022/01/05 02:52:13;;;;;;;0.28;0.28;;;;;;;;;;4942193;28;20067;-72
2022/01/05 02:54:38;;;;;;;0.40;0.40;;;;;;;;;;4945319;28;20736;-71
2022/01/05 02:57:04;;;;;;;0.30;0.30;;;;;;;;;;4961128;28;20050;-70
2022/01/05 02:59:30;;;;;;;0.40;0.40;;;;;;;;;;4945254;29;20039;-72
2022/01/05 03:01:55;;;;;;;0.30;0.30;;;;;;;;;;4944032;28;20038;-71
2022/01/05 03:04:21;;;;;;;0.30;0.30;;;;;;;;;;4944451;28;20495;-72
2022/01/05 03:06:46;;;;;;;0.80;0.80;;;;;;;;;;4932474;29;20047;-71
2022/01/05 03:09:12;;;;;;;0.30;0.30;;;;;;;;;;4941685;29;20098;-71
2022/01/05 03:11:37;;;;;;;0.30;0.30;;;;;;;;;;4928369;29;20039;-71
2022/01/05 03:14:02;;;;;;;0.35;0.35;;;;;;;;;;4944943;28;20050;-72
2022/01/05 03:16:28;;;;;;;0.15;0.15;;;;;;;;;;4943978;28;20507;-71
2022/01/05 03:18:54;;;;;;;0.57;0.30;;;;;;;;;;4959364;28;20066;-72
2022/01/05 03:21:19;;;;;;;0.20;0.20;;;;;;;;;;4945281;28;20319;-72
2022/01/05 03:23:46;;;;;;;3.40;0.40;;;;;;;;;;4943153;28;20147;-72
2022/01/05 03:26:12;;;;;;;0.30;0.30;;;;;;;;;;4945205;28;20035;-74
2022/01/05 03:28:38;;;;;;;0.40;0.40;;;;;;;;;;4959645;28;20051;-70
2022/01/05 03:31:03;;;;;;;0.30;0.30;;;;;;;;;;4929691;29;20092;-72
2022/01/05 03:33:29;;;;;;;0.30;0.30;;;;;;;;;;4958759;28;20046;-72
2022/01/05 03:35:54;;;;;;;0.30;0.30;;;;;;;;;;4944526;28;20130;-71
2022/01/05 03:38:20;;;;;;;0.30;0.30;;;;;;;;;;4935733;28;20046;-72
2022/01/05 03:40:47;;;;;;;0.40;0.40;;;;;;;;;;4932428;29;20066;-72
2022/01/05 03:43:13;;;;;;;0.28;0.28;;;;;;;;;;4928277;29;20036;-72
2022/01/05 03:45:39;;;;;;;0.20;0.20;;;;;;;;;;4927661;28;20043;-72
2022/01/05 03:48:08;;;;;;;0.20;0.20;;;;;;;;;;4939180;28;20456;-72
2022/01/05 03:50:34;;;;;;;0.30;0.30;;;;;;;;;;4926633;29;20047;-71
2022/01/05 03:53:00;;;;;;;0.30;0.30;;;;;;;;;;4930031;29;20766;-72
2022/01/05 03:55:25;;;;;;;0.30;0.30;;;;;;;;;;4927260;29;20054;-72
2022/01/05 03:57:51;;;;;;;0.30;0.30;;;;;;;;;;4943830;28;20041;-74
2022/01/05 04:00:17;;;;;;;0.88;0.35;;;;;;;;;;4951394;28;20036;-72
2022/01/05 04:02:43;;;;;;;0.30;0.30;;;;;;;;;;4932146;29;20031;-73
2022/01/05 04:05:09;;;;;;;0.32;0.32;;;;;;;;;;4940513;29;20057;-72
2022/01/05 04:07:34;;;;;;;0.50;0.50;;;;;;;;;;4926252;28;20504;-72
2022/01/05 04:09:59;;;;;;;0.40;0.40;;;;;;;;;;4944892;28;20043;-72
2022/01/05 04:12:25;;;;;;;0.45;0.45;;;;;;;;;;4927203;29;20107;-72
2022/01/05 04:14:50;;;;;;;0.60;0.60;;;;;;;;;;4959617;28;20089;-73
2022/01/05 04:17:16;;;;;;;0.30;0.30;;;;;;;;;;4925963;29;20035;-72
2022/01/05 04:19:41;;;;;;;0.40;0.40;;;;;;;;;;4957558;28;20527;-72
2022/01/05 04:22:07;;;;;;;0.40;0.40;;;;;;;;;;4941589;28;20050;-71
2022/01/05 04:24:32;;;;;;;0.30;0.30;;;;;;;;;;4947992;28;20044;-71
2022/01/05 04:26:57;;;;;;;0.40;0.40;;;;;;;;;;4937459;28;20043;-72
2022/01/05 04:29:23;;;;;;;0.30;0.30;;;;;;;;;;4943116;28;20041;-71
2022/01/05 04:31:50;;;;;;;0.52;0.43;;;;;;;;;;4957460;28;20047;-72
2022/01/05 04:34:15;;;;;;;0.40;0.40;;;;;;;;;;4940832;28;20062;-71
2022/01/05 04:36:41;;;;;;;0.30;0.30;;;;;;;;;;4942378;28;20489;-71
2022/01/05 04:39:06;;;;;;;0.30;0.30;;;;;;;;;;4943994;28;20039;-70
2022/01/05 04:41:32;;;;;;;0.30;0.30;;;;;;;;;;4957857;28;20039;-71
2022/01/05 04:43:57;;;;;;;0.43;0.43;;;;;;;;;;4958109;28;20414;-70
2022/01/05 04:46:22;;;;;;;0.40;0.40;;;;;;;;;;4941945;28;20031;-72
2022/01/05 04:48:48;;;;;;;0.30;0.30;;;;;;;;;;4943021;28;20940;-71
2022/01/05 04:51:13;;;;;;;0.55;0.55;;;;;;;;;;4936518;28;20491;-72
2022/01/05 04:53:39;;;;;;;0.50;0.50;;;;;;;;;;4938469;28;20040;-71
2022/01/05 04:56:04;;;;;;;0.40;0.40;;;;;;;;;;4957188;28;20027;-71
2022/01/05 04:58:31;;;;;;;0.50;0.50;;;;;;;;;;4942659;28;20551;-71
2022/01/05 05:00:57;;;;;;;0.50;0.50;;;;;;;;;;4956612;28;20439;-72
2022/01/05 05:03:22;;;;;;;0.50;0.50;;;;;;;;;;4956022;28;20488;-72
2022/01/05 05:05:48;;;;;;;0.60;0.60;;;;;;;;;;4957474;28;20062;-71
2022/01/05 05:08:13;;;;;;;0.45;0.45;;;;;;;;;;4942610;28;20054;-71
2022/01/05 05:10:39;;;;;;;0.50;0.50;;;;;;;;;;4936250;28;20035;-71
2022/01/05 05:13:12;;;;;;;0.40;0.40;;;;;;;;;;4941451;28;20039;-72
2022/01/05 05:15:40;;;;;;;0.43;0.43;;;;;;;;;;4925158;29;20697;-72
2022/01/05 05:18:06;;;;;;;1.75;0.60;;;;;;;;;;4926511;29;20050;-72
2022/01/05 05:20:35;;;;;;;0.63;0.52;;;;;;;;;;4941586;29;20039;-71
2022/01/05 05:23:01;;;;;;;0.45;0.45;;;;;;;;;;4942344;28;20039;-71
2022/01/05 05:25:27;;;;;;;0.45;0.45;;;;;;;;;;4940751;28;20047;-71
2022/01/05 05:27:52;;;;;;;0.32;0.32;;;;;;;;;;4928553;29;20054;-70
2022/01/05 05:30:18;;;;;;;0.40;0.40;;;;;;;;;;4922843;29;20086;-72
2022/01/05 05:32:44;;;;;;;0.40;0.40;;;;;;;;;;4929371;29;20043;-72
2022/01/05 05:35:09;;;;;;;0.30;0.30;;;;;;;;;;4929472;28;20042;-71
2022/01/05 05:37:35;;;;;;;0.40;0.40;;;;;;;;;;4939952;28;20097;-71
2022/01/05 05:40:01;;;;;;;0.50;0.50;;;;;;;;;;4951454;28;20781;-70
2022/01/05 05:42:26;;;;;;;1.38;0.50;;;;;;;;;;4924144;28;20031;-72
2022/01/05 05:44:52;;;;;;;0.50;0.50;;;;;;;;;;4901882;28;1102700;-73
2022/01/05 05:47:18;;;;;;;0.70;0.70;;;;;;;;;;4935027;28;20126;-73
2022/01/05 05:49:45;;;;;;;0.50;0.50;;;;;;;;;;4934329;28;20043;-74
2022/01/05 05:52:12;;;;;;;0.40;0.40;;;;;;;;;;4943253;28;20125;-74
2022/01/05 05:54:37;;;;;;;0.30;0.30;;;;;;;;;;4942556;28;20493;-73
2022/01/05 05:57:04;;;;;;;0.20;0.20;;;;;;;;;;4942908;28;20126;-74
2022/01/05 05:59:29;;;;;;;0.30;0.30;;;;;;;;;;4942447;28;20083;-73
2022/01/05 06:01:54;;;;;;;0.40;0.40;;;;;;;;;;4941717;28;20059;-72
2022/01/05 06:04:20;;;;;;;0.30;0.30;;;;;;;;;;4939287;28;20377;-72
2022/01/05 06:06:46;;;;;;;0.20;0.20;;;;;;;;;;4941989;28;20051;-74
2022/01/05 06:09:11;;;;;;;0.40;0.40;;;;;;;;;;4928264;28;20138;-73
2022/01/05 06:11:36;;;;;;;0.40;0.40;;;;;;;;;;4925627;28;20075;-76
2022/01/05 06:14:02;;;;;;;0.30;0.30;;;;;;;;;;4937869;28;20039;-73
2022/01/05 06:16:27;;;;;;;0.57;0.50;;;;;;;;;;4933841;29;20035;-75
2022/01/05 06:18:53;;;;;;;1.00;0.32;;;;;;;;;;4934267;29;20412;-73
2022/01/05 06:21:18;;;;;;;0.28;0.28;;;;;;;;;;4941629;29;20074;-73
2022/01/05 06:23:44;;;;;;;0.43;0.22;;;;;;;;;;4938304;28;20044;-73
2022/01/05 06:26:09;;;;;;;0.30;0.30;;;;;;;;;;4937878;28;20125;-73
2022/01/05 06:28:35;;;;;;;0.30;0.30;;;;;;;;;;4935809;28;20107;-73
2022/01/05 06:31:00;;;;;;;0.30;0.30;;;;;;;;;;4944023;29;20102;-75
2022/01/05 06:33:26;;;;;;;0.32;0.32;;;;;;;;;;4955755;28;20070;-72
2022/01/05 06:35:51;;;;;;;0.65;0.30;;;;;;;;;;4951109;28;20611;-76
2022/01/05 06:38:17;;;;;;;0.20;0.20;;;;;;;;;;4936031;29;20155;-73
2022/01/05 06:40:42;;;;;;;0.30;0.30;;;;;;;;;;4950157;28;20947;-72
2022/01/05 06:43:07;;;;;;;0.25;0.25;;;;;;;;;;4936173;29;20125;-71
2022/01/05 06:45:33;;;;;;;0.30;0.30;;;;;;;;;;4936404;28;20070;-73
2022/01/05 06:47:58;;;;;;;0.30;0.22;;;;;;;;;;4955585;28;20039;-72
2022/01/05 06:50:25;;;;;;;0.30;0.30;;;;;;;;;;4944265;28;20027;-72
2022/01/05 06:52:50;;;;;;;0.30;0.30;;;;;;;;;;4937948;28;20116;-72
2022/01/05 06:55:16;;;;;;;0.22;0.22;;;;;;;;;;4939212;28;20035;-72
2022/01/05 06:57:42;;;;;;;0.20;0.20;;;;;;;;;;4936702;28;20141;-71
2022/01/05 07:00:12;;;;;;;0.30;0.30;;;;;;;;;;4938818;28;20043;-73
2022/01/05 07:02:37;;;;;;;1.88;0.30;;;;;;;;;;4944269;29;20038;-71
2022/01/05 07:05:04;;;;;;;0.30;0.30;;;;;;;;;;4936549;29;20050;-72
2022/01/05 07:07:30;;;;;;;1.75;0.30;;;;;;;;;;4942798;28;20043;-69
2022/01/05 07:09:55;;;;;;;0.40;0.40;;;;;;;;;;4936595;28;20043;-73
2022/01/05 07:12:21;;;;;;;0.30;0.30;;;;;;;;;;4934350;28;20050;-69
2022/01/05 07:14:46;;;;;;;0.32;0.32;;;;;;;;;;4935305;28;20035;-69
2022/01/05 07:17:12;;;;;;;0.30;0.20;;;;;;;;;;4937519;28;20039;-71
2022/01/05 07:19:37;;;;;;;0.30;0.30;;;;;;;;;;4935437;28;20038;-70
2022/01/05 07:22:03;;;;;;;0.38;0.30;;;;;;;;;;4926128;29;20043;-72
2022/01/05 07:24:28;;;;;;;0.28;0.28;;;;;;;;;;4929969;29;20105;-71
2022/01/05 07:26:54;;;;;;;0.35;0.35;;;;;;;;;;4945026;28;20039;-70
2022/01/05 07:29:19;;;;;;;0.30;0.30;;;;;;;;;;4938876;28;20390;-69
2022/01/05 07:31:45;;;;;;;1.55;0.40;;;;;;;;;;4931851;28;20150;-70
2022/01/05 07:34:11;;;;;;;0.32;0.32;;;;;;;;;;4939050;28;20035;-75
2022/01/05 07:36:38;;;;;;;0.50;0.40;;;;;;;;;;4936030;29;20031;-73
2022/01/05 07:39:05;;;;;;;0.40;0.30;;;;;;;;;;4939758;29;20514;-73
2022/01/05 07:41:33;;;;;;;0.45;0.40;;;;;;;;;;4930572;28;20066;-71
2022/01/05 07:43:59;;;;;;;0.35;0.35;;;;;;;;;;4938533;29;20053;-70
2022/01/05 07:46:25;;;;;;;0.90;0.40;;;;;;;;;;4939149;28;20039;-70
2022/01/05 07:48:50;;;;;;;0.47;0.47;;;;;;;;;;4944258;29;20110;-70
2022/01/05 07:51:16;;;;;;;2.45;0.90;;;;;;;;;;4943513;28;20054;-70
2022/01/05 07:53:42;;;;;;;0.52;0.45;;;;;;;;;;4944764;29;20074;-72
2022/01/05 07:56:08;;;;;;;0.43;0.40;;;;;;;;;;4935077;29;20058;-72
2022/01/05 07:58:35;;;;;;;3.15;0.40;;;;;;;;;;4943353;29;20039;-70
2022/01/05 08:01:00;;;;;;;2.42;0.50;;;;;;;;;;4942455;28;20500;-72
2022/01/05 08:03:26;;;;;;;0.30;0.30;;;;;;;;;;4943315;28;20039;-72
2022/01/05 08:05:51;;;;;;;0.40;0.40;;;;;;;;;;4943290;28;20543;-71
2022/01/05 08:08:17;;;;;;;0.40;0.40;;;;;;;;;;4945037;28;20041;-71
2022/01/05 08:10:43;;;;;;;0.68;0.38;;;;;;;;;;4943430;29;20946;-72
2022/01/05 08:13:08;;;;;;;0.40;0.40;;;;;;;;;;4958843;28;20039;-73
2022/01/05 08:15:34;;;;;;;0.35;0.35;;;;;;;;;;4940828;28;20051;-73
2022/01/05 08:18:00;;;;;;;0.30;0.30;;;;;;;;;;4944526;28;20039;-74
2022/01/05 08:20:25;;;;;;;0.38;0.38;;;;;;;;;;4938178;28;20054;-72
2022/01/05 08:22:51;;;;;;;1.90;0.50;;;;;;;;;;4931985;28;20039;-73
2022/01/05 08:25:18;;;;;;;0.30;0.30;;;;;;;;;;4923021;28;20126;-71
2022/01/05 08:27:48;;;;;;;0.52;0.40;;;;;;;;;;4944138;29;20039;-72
2022/01/05 08:30:18;;;;;;;0.63;0.60;;;;;;;;;;4941747;29;20046;-70
2022/01/05 08:32:46;;;;;;;0.20;0.20;;;;;;;;;;4944455;28;20042;-71
2022/01/05 08:35:13;;;;;;;0.40;0.40;;;;;;;;;;4942054;28;20486;-70
2022/01/05 08:37:43;;;;;;;2.90;0.65;;;;;;;;;;4947115;28;20046;-71
2022/01/05 08:40:13;;;;;;;0.38;0.38;;;;;;;;;;4929498;29;21202;-71
2022/01/05 08:42:39;;;;;;;0.30;0.30;;;;;;;;;;4937128;29;20547;-72
2022/01/05 08:45:06;;;;;;;0.30;0.30;;;;;;;;;;4940818;28;20097;-72
2022/01/05 08:47:31;;;;;;;0.50;0.30;;;;;;;;;;4927656;28;20031;-72
2022/01/05 08:49:58;;;;;;;0.30;0.30;;;;;;;;;;4937906;29;20488;-72
2022/01/05 08:52:24;;;;;;;0.50;0.50;;;;;;;;;;4923525;29;20062;-72
2022/01/05 08:54:49;;;;;;;0.30;0.30;;;;;;;;;;4950342;28;20066;-73
2022/01/05 08:57:16;;;;;;;0.25;0.25;;;;;;;;;;4934790;28;20039;-70
2022/01/05 08:59:45;;;;;;;0.40;0.40;;;;;;;;;;4931489;28;20031;-73
2022/01/05 09:02:15;;;;;;;0.30;0.30;;;;;;;;;;4924530;29;20050;-72
2022/01/05 09:04:40;;;;;;;0.50;0.50;;;;;;;;;;4935074;29;20035;-73
2022/01/05 09:07:06;;;;;;;0.30;0.30;;;;;;;;;;4937414;28;20031;-72
2022/01/05 09:09:32;;;;;;;0.30;0.30;;;;;;;;;;4938798;28;20440;-72
2022/01/05 09:11:58;;;;;;;0.20;0.20;;;;;;;;;;4929624;29;20032;-73
2022/01/05 09:14:24;;;;;;;0.38;0.38;;;;;;;;;;4933378;28;20050;-74
2022/01/05 09:16:52;;;;;;;0.30;0.30;;;;;;;;;;4928674;29;20043;-74
2022/01/05 09:19:18;;;;;;;0.30;0.30;;;;;;;;;;4935059;28;20445;-74
2022/01/05 09:21:48;;;;;;;0.20;0.20;;;;;;;;;;4937626;29;20513;-73
2022/01/05 09:24:15;;;;;;;0.30;0.30;;;;;;;;;;4939367;29;20085;-73
2022/01/05 09:26:41;;;;;;;0.40;0.40;;;;;;;;;;4934953;29;20043;-76
2022/01/05 09:29:07;;;;;;;0.22;0.22;;;;;;;;;;4930848;28;20354;-74
2022/01/05 09:31:33;;;;;;;0.38;0.38;;;;;;;;;;4935802;28;20042;-75
2022/01/05 09:33:58;;;;;;;0.20;0.20;;;;;;;;;;4957212;28;20047;-74
2022/01/05 09:36:35;;;;;;;0.60;0.60;;;;;;;;;;4957089;28;20043;-75
2022/01/05 09:42:05;;;;;;;0.50;0.50;;;;;;;;;;4929497;28;20042;-75
2022/01/05 09:44:34;;;;;;;0.73;0.73;;;;;;;;;;4939624;29;20035;-72
2022/01/05 09:47:29;;;;;;;0.40;0.40;;;;;;;;;;4926701;29;20081;-72
2022/01/05 09:50:03;;;;;;;0.40;0.40;;;;;;;;;;4950256;28;20493;-72
2022/01/05 09:52:30;;;;;;;0.40;0.40;;;;;;;;;;4939056;28;20039;-75
2022/01/05 09:54:57;;;;;;;0.40;0.40;;;;;;;;;;4925623;29;20047;-72
2022/01/05 09:57:23;;;;;;;0.60;0.60;;;;;;;;;;4931545;29;20067;-72
2022/01/05 09:59:50;;;;;;;0.40;0.40;;;;;;;;;;4926774;29;20059;-72
2022/01/05 10:02:16;;;;;;;0.60;0.60;;;;;;;;;;4947236;28;20744;-73
2022/01/05 10:04:43;;;;;;;0.85;0.80;;;;;;;;;;4943233;28;20042;-72
2022/01/05 10:07:09;;;;;;;7.07;0.88;;;;;;;;;;4933501;29;20071;-77
2022/01/05 10:09:44;;;;;;;0.70;0.70;;;;;;;;;;4936128;29;20035;-73
2022/01/05 10:12:11;;;;;;;0.95;0.95;;;;;;;;;;4926157;28;20865;-72
2022/01/05 10:14:41;;;;;;;1.05;1.02;;;;;;;;;;4915265;29;20039;-72
2022/01/05 10:17:12;;;;;;;0.90;0.90;;;;;;;;;;4932255;29;20593;-73
2022/01/05 10:19:38;;;;;;;0.80;0.80;;;;;;;;;;4941818;29;20035;-73
2022/01/05 10:22:25;;;;;;;2.38;0.90;;;;;;;;;;4933562;29;20043;-74
2022/01/05 10:24:51;;;;;;;1.02;0.95;;;;;;;;;;4937827;28;20075;-72
2022/01/05 10:27:19;;;;;;;1.60;1.50;;;;;;;;;;4931601;28;20035;-72
2022/01/05 10:30:09;;;;;;;1.35;1.27;;;;;;;;;;4941746;28;20039;-72
2022/01/05 10:32:35;;;;;;;1.25;1.13;;;;;;;;;;4940128;29;20039;-72
2022/01/05 10:35:05;;;;;;;1.60;1.50;;;;;;;;;;4955531;28;20771;-73
2022/01/05 10:37:31;;;;;;;1.55;1.45;;;;;;;;;;4940043;28;20039;-73
2022/01/05 10:40:08;;;;;;;2.67;2.47;;;;;;;;;;4932533;29;20544;-74
2022/01/05 10:42:34;;;;;;;4.45;2.40;;;;;;;;;;4942209;29;20126;-74
2022/01/05 10:45:02;;;;;;;12.10;1.77;;;;;;;;;;4929311;29;20207;-74
2022/01/05 10:47:28;;;;;;;2.60;2.40;;;;;;;;;;4938579;28;20114;-72
2022/01/05 10:49:54;;;;;;;2.38;2.13;;;;;;;;;;4941406;28;20043;-73
2022/01/05 10:52:24;;;;;;;3.85;3.28;;;;;;;;;;4941685;28;20141;-72
2022/01/05 10:54:50;;;;;;;3.72;2.90;;;;;;;;;;4934942;28;20042;-73
2022/01/05 10:57:17;;;;;;;3.05;2.55;;;;;;;;;;4939620;28;20841;-72
2022/01/05 10:59:45;;;;;;;3.83;2.75;;;;;;;;;;4938643;28;20077;-71
2022/01/05 11:02:31;;;;;;;4.80;3.60;;;;;;;;;;4927505;29;20101;-74
2022/01/05 11:05:13;;;;;;;2.83;2.30;;;;;;;;;;4933180;29;20063;-74
2022/01/05 11:07:41;;;;;;;;;;;;;;;;;;4943254;28;20126;-73
2022/01/05 11:10:13;;;;;;;4.13;2.25;;;;;;;;;;4945574;28;19932;-72
2022/01/05 11:12:57;;;;;;;7.75;2.10;;;;;;;;;;4930206;28;20039;-75
2022/01/05 11:15:34;;;;;;;5.78;4.00;;;;;;;;;;4938363;29;20417;-72
2022/01/05 11:18:09;;;;;;;2.70;2.28;;;;;;;;;;4940633;28;20077;-73
2022/01/05 11:21:01;;;;;;;3.75;3.25;;;;;;;;;;4938314;28;20039;-71
2022/01/05 11:23:28;;;;;;;5.38;3.20;;;;;;;;;;4939204;28;20054;-71
2022/01/05 11:25:56;;;;;;;3.78;1.85;;;;;;;;;;4939164;29;20182;-73
2022/01/05 11:28:22;;;;;;;3.35;2.47;;;;;;;;;;4932654;29;20031;-73
2022/01/05 11:30:51;;;;;;;4.53;3.25;;;;;;;;;;4938236;28;20039;-72
2022/01/05 11:33:17;;;;;;;4.97;3.20;;;;;;;;;;4936170;28;20130;-72
2022/01/05 11:35:43;;;;;;;2.00;1.73;;;;;;;;;;4957155;28;20038;-73
2022/01/05 11:38:10;;;;;;;2.47;2.10;;;;;;;;;;4943052;28;20038;-73
2022/01/05 11:40:38;;;;;;;2.97;1.42;;;;;;;;;;4938631;28;20057;-74
2022/01/05 11:43:13;;;;;;;3.47;2.65;;;;;;;;;;4939420;28;20095;-73
2022/01/05 11:45:45;;;;;;;1.92;1.77;;;;;;;;;;4936353;29;20040;-74
2022/01/05 11:48:10;;;;;;;;;;;;;;;;;;4935572;29;20039;-75
2022/01/05 11:50:42;;;;;;;5.90;2.03;;;;;;;;;;4944366;29;19922;-74
2022/01/05 11:53:08;;;;;;;2.67;1.80;;;;;;;;;;4937364;28;20032;-73
2022/01/05 11:55:59;;;;;;;2.30;2.05;;;;;;;;;;4936664;28;20536;-73
2022/01/05 11:58:30;;;;;;;3.17;2.50;;;;;;;;;;4940490;28;20054;-74
2022/01/05 12:01:22;;;;;;;3.78;2.40;;;;;;;;;;4930604;29;20040;-74
2022/01/05 12:03:50;;;;;;;1.60;1.50;;;;;;;;;;4930584;28;20674;-75
2022/01/05 12:06:16;;;;;;;2.15;1.80;;;;;;;;;;4933832;28;20049;-75
2022/01/05 12:08:44;;;;;;;2.40;2.20;;;;;;;;;;4931676;29;20114;-73
2022/01/05 12:11:31;;;;;;;1.30;1.20;;;;;;;;;;4939983;28;20035;-73
2022/01/05 12:14:04;;;;;;;0.90;0.90;;;;;;;;;;4934845;28;20080;-72
2022/01/05 12:16:59;;;;;;;4.68;1.60;;;;;;;;;;4940135;28;20151;-75
2022/01/05 12:19:32;;;;;;;1.50;1.40;;;;;;;;;;4933245;28;20043;-74
2022/01/05 12:22:00;;;;;;;1.45;1.35;;;;;;;;;;4931378;28;20094;-70
2022/01/05 12:24:53;;;;;;;1.77;1.30;;;;;;;;;;4938447;28;20031;-72
2022/01/05 12:27:32;;;;;;;2.80;1.25;;;;;;;;;;4935391;28;20051;-72
2022/01/05 12:29:58;;;;;;;0.95;0.95;;;;;;;;;;4935764;29;20050;-76
2022/01/05 12:32:35;;;;;;;3.47;1.38;;;;;;;;;;4937726;29;20043;-71
2022/01/05 12:35:05;;;;;;;0.70;0.70;;;;;;;;;;4938223;28;20043;-75
2022/01/05 12:37:48;;;;;;;0.52;0.52;;;;;;;;;;4931693;28;20119;-76
2022/01/05 12:40:36;;;;;;;3.92;1.05;;;;;;;;;;4932397;29;20483;-74
2022/01/05 12:43:08;;;;;;;1.15;1.08;;;;;;;;;;4951355;28;20044;-72
2022/01/05 12:45:54;;;;;;;1.13;1.02;;;;;;;;;;4934615;29;20043;-78
2022/01/05 12:51:16;;;;;;;1.92;0.80;;;;;;;;;;4953502;28;20145;-73
2022/01/05 12:54:00;;;;;;;2.03;1.20;;;;;;;;;;4932850;29;20066;-73
2022/01/05 12:56:32;;;;;;;3.88;1.27;;;;;;;;;;4933379;29;20042;-70
2022/01/05 12:58:59;;;;;;;0.98;0.85;;;;;;;;;;4935023;28;20039;-71
2022/01/05 13:01:27;;;;;;;1.50;1.10;;;;;;;;;;4940162;28;20031;-75
2022/01/05 13:03:54;;;;;;;3.47;0.98;;;;;;;;;;4929540;29;20039;-71
2022/01/05 13:06:20;;;;;;;4.53;1.27;;;;;;;;;;4934181;28;20122;-71
2022/01/05 13:08:55;;;;;;;2.92;1.38;;;;;;;;;;4934697;28;20027;-70
2022/01/05 13:11:45;;;;;;;1.40;1.30;;;;;;;;;;4933699;28;20477;-71
2022/01/05 13:14:18;;;;;;;3.17;1.30;;;;;;;;;;4930932;29;20068;-72
2022/01/05 13:16:49;;;;;;;2.25;1.30;;;;;;;;;;4935665;29;20086;-71
2022/01/05 13:19:30;;;;;;;3.45;1.13;;;;;;;;;;4939705;28;20157;-69
2022/01/05 13:21:59;;;;;;;8.07;1.20;;;;;;;;;;4929803;28;20093;-71
2022/01/05 13:24:54;;;;;;;2.40;1.55;;;;;;;;;;4939315;28;20617;-71
2022/01/05 13:27:28;;;;;;;2.22;1.20;;;;;;;;;;4934318;28;20606;-71
2022/01/05 13:29:55;;;;;;;2.95;0.90;;;;;;;;;;4928989;29;20143;-70
2022/01/05 13:32:23;;;;;;;5.95;1.35;;;;;;;;;;4940836;28;20057;-71
2022/01/05 13:34:59;;;;;;;1.48;1.23;;;;;;;;;;4937124;28;20047;-72
2022/01/05 13:37:30;;;;;;;2.22;1.67;;;;;;;;;;4925245;29;20039;-71
2022/01/05 13:39:59;;;;;;;6.40;2.00;;;;;;;;;;4926612;29;20067;-72
2022/01/05 13:42:37;;;;;;;0.90;0.90;;;;;;;;;;4940414;28;20047;-71
2022/01/05 13:45:05;;;;;;;1.10;1.10;;;;;;;;;;4940570;28;20031;-72
2022/01/05 13:47:31;;;;;;;2.58;1.60;;;;;;;;;;4940982;29;20046;-72
2022/01/05 13:50:17;;;;;;;1.20;1.10;;;;;;;;;;4939828;29;20038;-71
2022/01/05 13:52:45;;;;;;;3.25;1.20;;;;;;;;;;4933656;28;20046;-71
2022/01/05 13:55:26;;;;;;;3.65;1.98;;;;;;;;;;4928646;28;20036;-73
2022/01/05 13:58:03;;;;;;;6.13;2.37;;;;;;;;;;4936213;29;20038;-72
2022/01/05 14:00:29;;;;;;;0.85;0.85;;;;;;;;;;4938433;29;20063;-73
2022/01/05 14:02:54;;;;;;;1.67;1.35;;;;;;;;;;4942352;28;20066;-70
2022/01/05 14:05:20;;;;;;;1.40;1.15;;;;;;;;;;4940113;28;20114;-70
2022/01/05 14:07:45;;;;;;;1.92;1.40;;;;;;;;;;4936547;28;20134;-71
2022/01/05 14:10:16;;;;;;;1.63;0.95;;;;;;;;;;4940068;29;20035;-72
2022/01/05 14:12:49;;;;;;;1.83;1.35;;;;;;;;;;4940070;28;20027;-71
2022/01/05 14:15:16;;;;;;;0.98;0.98;;;;;;;;;;4928476;28;20039;-71
2022/01/05 14:18:17;;;;;;;1.98;1.80;;;;;;;;;;4926700;28;20122;-72
2022/01/05 14:20:48;;;;;;;5.20;1.48;;;;;;;;;;4902020;29;20032;-71
2022/01/05 14:23:17;;;;;;;3.20;0.80;;;;;;;;;;4935034;28;20057;-73
2022/01/05 14:25:49;;;;;;;2.63;1.35;;;;;;;;;;4940379;28;20592;-72
2022/01/05 14:28:31;;;;;;;2.90;0.80;;;;;;;;;;4942629;28;20142;-72
2022/01/05 14:31:03;;;;;;;1.42;1.27;;;;;;;;;;4927560;29;20071;-74
2022/01/05 14:33:40;;;;;;;1.77;1.20;;;;;;;;;;4929881;29;20059;-74
2022/01/05 14:36:20;;;;;;;5.10;1.10;;;;;;;;;;4931888;29;20079;-71
2022/01/05 14:39:04;;;;;;;2.58;1.40;;;;;;;;;;4938813;28;20138;-70
2022/01/05 14:41:32;;;;;;;3.17;1.80;;;;;;;;;;4943831;28;20039;-70
2022/01/05 14:44:09;;;;;;;2.03;1.48;;;;;;;;;;4928685;28;20066;-70
2022/01/05 14:46:36;;;;;;;2.10;1.73;;;;;;;;;;4945496;28;20035;-70
2022/01/05 14:49:06;;;;;;;3.42;1.10;;;;;;;;;;4939679;28;20036;-70
2022/01/05 14:51:32;;;;;;;0.80;0.80;;;;;;;;;;4929505;28;20441;-69
2022/01/05 14:53:59;;;;;;;2.03;1.30;;;;;;;;;;4945690;28;20035;-70
2022/01/05 14:56:30;;;;;;;3.15;1.33;;;;;;;;;;4952725;28;20031;-71